sensor_id;sensor_type;location;lat;lon;timestamp;P1;durP1;ratioP1;P2;durP2;ratioP2
51828;SDS011;37881;48.024;8.774;2022-12-24T00:00:04;2.90;;;1.50;;
51828;SDS011;37881;48.024;8.774;2022-12-24T00:02:32;4.15;;;1.70;;
51828;SDS011;37881;48.024;8.774;2022-12-24T00:04:58;2.73;;;1.60;;
51828;SDS011;37881;48.024;8.774;2022-12-24T00:07:28;4.63;;;1.85;;
51828;SDS011;37881;48.024;8.774;2022-12-24T00:09:55;2.95;;;1.42;;
51828;SDS011;37881;48.024;8.774;2022-12-24T00:12:22;3.65;;;1.40;;
51828;SDS011;37881;48.024;8.774;2022-12-24T00:14:49;4.18;;;1.63;;
51828;SDS011;37881;48.024;8.774;2022-12-24T00:17:16;4.23;;;1.30;;
51828;SDS011;37881;48.024;8.774;2022-12-24T00:19:42;4.00;;;1.30;;
51828;SDS011;37881;48.024;8.774;2022-12-24T00:22:09;5.10;;;1.65;;
51828;SDS011;37881;48.024;8.774;2022-12-24T00:24:36;4.47;;;1.20;;
51828;SDS011;37881;48.024;8.774;2022-12-24T00:27:03;7.53;;;2.17;;
51828;SDS011;37881;48.024;8.774;2022-12-24T00:29:31;3.03;;;1.53;;
51828;SDS011;37881;48.024;8.774;2022-12-24T00:31:59;5.68;;;2.15;;
51828;SDS011;37881;48.024;8.774;2022-12-24T00:34:25;6.20;;;2.05;;
51828;SDS011;37881;48.024;8.774;2022-12-24T00:36:52;6.32;;;2.72;;
51828;SDS011;37881;48.024;8.774;2022-12-24T00:39:19;6.97;;;2.97;;
51828;SDS011;37881;48.024;8.774;2022-12-24T00:41:45;4.83;;;1.93;;
51828;SDS011;37881;48.024;8.774;2022-12-24T00:44:12;5.85;;;2.28;;
51828;SDS011;37881;48.024;8.774;2022-12-24T00:46:39;5.75;;;2.53;;
51828;SDS011;37881;48.024;8.774;2022-12-24T00:49:07;5.78;;;2.30;;
51828;SDS011;37881;48.024;8.774;2022-12-24T00:51:34;5.20;;;1.88;;
51828;SDS011;37881;48.024;8.774;2022-12-24T00:54:02;6.83;;;1.60;;
51828;SDS011;37881;48.024;8.774;2022-12-24T00:56:29;8.70;;;3.33;;
51828;SDS011;37881;48.024;8.774;2022-12-24T00:58:55;5.28;;;2.13;;
51828;SDS011;37881;48.024;8.774;2022-12-24T01:01:23;4.97;;;1.40;;
51828;SDS011;37881;48.024;8.774;2022-12-24T01:03:50;3.55;;;1.73;;
51828;SDS011;37881;48.024;8.774;2022-12-24T01:06:18;4.83;;;1.60;;
51828;SDS011;37881;48.024;8.774;2022-12-24T01:08:49;3.30;;;1.38;;
51828;SDS011;37881;48.024;8.774;2022-12-24T01:11:17;4.40;;;1.30;;
51828;SDS011;37881;48.024;8.774;2022-12-24T01:13:44;7.15;;;1.15;;
51828;SDS011;37881;48.024;8.774;2022-12-24T01:16:15;4.85;;;1.30;;
51828;SDS011;37881;48.024;8.774;2022-12-24T01:18:44;6.73;;;1.37;;
51828;SDS011;37881;48.024;8.774;2022-12-24T01:21:11;21.83;;;7.25;;
51828;SDS011;37881;48.024;8.774;2022-12-24T01:23:38;23.60;;;8.57;;
51828;SDS011;37881;48.024;8.774;2022-12-24T01:26:04;8.77;;;3.08;;
51828;SDS011;37881;48.024;8.774;2022-12-24T01:28:31;6.55;;;2.00;;
51828;SDS011;37881;48.024;8.774;2022-12-24T01:30:58;14.97;;;5.10;;
51828;SDS011;37881;48.024;8.774;2022-12-24T01:33:28;9.45;;;3.60;;
51828;SDS011;37881;48.024;8.774;2022-12-24T01:35:55;6.47;;;2.33;;
51828;SDS011;37881;48.024;8.774;2022-12-24T01:38:22;10.55;;;4.18;;
51828;SDS011;37881;48.024;8.774;2022-12-24T01:40:49;6.10;;;2.00;;
51828;SDS011;37881;48.024;8.774;2022-12-24T01:43:34;3.87;;;1.50;;
51828;SDS011;37881;48.024;8.774;2022-12-24T01:53:51;7.95;;;2.75;;
51828;SDS011;37881;48.024;8.774;2022-12-24T01:56:30;6.03;;;1.87;;
51828;SDS011;37881;48.024;8.774;2022-12-24T01:59:02;3.55;;;1.73;;
51828;SDS011;37881;48.024;8.774;2022-12-24T02:01:33;7.50;;;2.85;;
51828;SDS011;37881;48.024;8.774;2022-12-24T02:04:01;7.13;;;2.60;;
51828;SDS011;37881;48.024;8.774;2022-12-24T02:06:37;6.97;;;2.33;;
51828;SDS011;37881;48.024;8.774;2022-12-24T02:09:04;4.73;;;1.80;;
51828;SDS011;37881;48.024;8.774;2022-12-24T02:11:32;5.20;;;2.10;;
51828;SDS011;37881;48.024;8.774;2022-12-24T02:14:03;5.32;;;2.25;;
51828;SDS011;37881;48.024;8.774;2022-12-24T02:22:45;6.40;;;2.40;;
51828;SDS011;37881;48.024;8.774;2022-12-24T02:27:58;5.00;;;1.40;;
51828;SDS011;37881;48.024;8.774;2022-12-24T02:30:46;5.40;;;1.38;;
51828;SDS011;37881;48.024;8.774;2022-12-24T02:35:58;6.43;;;2.17;;
51828;SDS011;37881;48.024;8.774;2022-12-24T02:38:33;8.57;;;2.58;;
51828;SDS011;37881;48.024;8.774;2022-12-24T02:41:15;10.05;;;2.95;;
51828;SDS011;37881;48.024;8.774;2022-12-24T02:43:47;8.02;;;2.83;;
51828;SDS011;37881;48.024;8.774;2022-12-24T02:46:17;5.68;;;2.25;;
51828;SDS011;37881;48.024;8.774;2022-12-24T02:48:48;5.03;;;1.70;;
51828;SDS011;37881;48.024;8.774;2022-12-24T02:51:16;5.50;;;1.48;;
51828;SDS011;37881;48.024;8.774;2022-12-24T02:53:49;7.93;;;2.20;;
51828;SDS011;37881;48.024;8.774;2022-12-24T02:56:36;6.38;;;2.25;;
51828;SDS011;37881;48.024;8.774;2022-12-24T02:59:32;5.93;;;2.60;;
51828;SDS011;37881;48.024;8.774;2022-12-24T03:02:19;4.87;;;1.93;;
51828;SDS011;37881;48.024;8.774;2022-12-24T03:07:48;7.15;;;3.88;;
51828;SDS011;37881;48.024;8.774;2022-12-24T03:12:44;7.38;;;2.40;;
51828;SDS011;37881;48.024;8.774;2022-12-24T03:15:16;3.40;;;1.77;;
51828;SDS011;37881;48.024;8.774;2022-12-24T03:17:46;5.82;;;2.40;;
51828;SDS011;37881;48.024;8.774;2022-12-24T03:20:17;28.77;;;13.88;;
51828;SDS011;37881;48.024;8.774;2022-12-24T03:22:48;25.25;;;10.30;;
51828;SDS011;37881;48.024;8.774;2022-12-24T03:25:15;5.80;;;3.65;;
51828;SDS011;37881;48.024;8.774;2022-12-24T03:27:42;8.10;;;3.45;;
51828;SDS011;37881;48.024;8.774;2022-12-24T03:30:10;9.85;;;3.63;;
51828;SDS011;37881;48.024;8.774;2022-12-24T03:32:39;5.20;;;3.03;;
51828;SDS011;37881;48.024;8.774;2022-12-24T03:35:06;6.38;;;3.28;;
51828;SDS011;37881;48.024;8.774;2022-12-24T03:37:33;5.40;;;3.17;;
51828;SDS011;37881;48.024;8.774;2022-12-24T03:40:00;5.77;;;2.73;;
51828;SDS011;37881;48.024;8.774;2022-12-24T03:42:27;8.88;;;4.30;;
51828;SDS011;37881;48.024;8.774;2022-12-24T03:44:53;6.38;;;2.53;;
51828;SDS011;37881;48.024;8.774;2022-12-24T03:47:20;6.32;;;2.60;;
51828;SDS011;37881;48.024;8.774;2022-12-24T03:49:47;4.88;;;2.08;;
51828;SDS011;37881;48.024;8.774;2022-12-24T03:52:13;6.33;;;2.17;;
51828;SDS011;37881;48.024;8.774;2022-12-24T03:54:40;5.63;;;2.70;;
51828;SDS011;37881;48.024;8.774;2022-12-24T03:57:07;5.13;;;2.80;;
51828;SDS011;37881;48.024;8.774;2022-12-24T03:59:34;8.00;;;2.80;;
51828;SDS011;37881;48.024;8.774;2022-12-24T04:02:00;7.47;;;3.17;;
51828;SDS011;37881;48.024;8.774;2022-12-24T04:04:27;7.43;;;3.30;;
51828;SDS011;37881;48.024;8.774;2022-12-24T04:06:54;6.97;;;2.60;;
51828;SDS011;37881;48.024;8.774;2022-12-24T04:09:21;5.28;;;3.58;;
51828;SDS011;37881;48.024;8.774;2022-12-24T04:11:47;6.00;;;3.00;;
51828;SDS011;37881;48.024;8.774;2022-12-24T04:14:14;5.30;;;3.20;;
51828;SDS011;37881;48.024;8.774;2022-12-24T04:16:41;5.10;;;2.40;;
51828;SDS011;37881;48.024;8.774;2022-12-24T04:19:07;6.32;;;2.58;;
51828;SDS011;37881;48.024;8.774;2022-12-24T04:21:34;7.05;;;2.88;;
51828;SDS011;37881;48.024;8.774;2022-12-24T04:24:01;5.50;;;2.80;;
51828;SDS011;37881;48.024;8.774;2022-12-24T04:26:27;4.68;;;2.40;;
51828;SDS011;37881;48.024;8.774;2022-12-24T04:28:54;5.77;;;2.47;;
51828;SDS011;37881;48.024;8.774;2022-12-24T04:31:21;13.98;;;4.85;;
51828;SDS011;37881;48.024;8.774;2022-12-24T04:33:49;8.00;;;3.60;;
51828;SDS011;37881;48.024;8.774;2022-12-24T04:36:17;15.50;;;6.05;;
51828;SDS011;37881;48.024;8.774;2022-12-24T04:38:45;14.48;;;5.85;;
51828;SDS011;37881;48.024;8.774;2022-12-24T04:41:14;12.20;;;5.30;;
51828;SDS011;37881;48.024;8.774;2022-12-24T04:43:50;13.43;;;5.20;;
51828;SDS011;37881;48.024;8.774;2022-12-24T04:46:21;7.40;;;3.85;;
51828;SDS011;37881;48.024;8.774;2022-12-24T04:48:50;11.07;;;4.80;;
51828;SDS011;37881;48.024;8.774;2022-12-24T04:51:19;8.77;;;5.13;;
51828;SDS011;37881;48.024;8.774;2022-12-24T04:53:46;9.63;;;4.87;;
51828;SDS011;37881;48.024;8.774;2022-12-24T04:56:14;8.30;;;4.45;;
51828;SDS011;37881;48.024;8.774;2022-12-24T04:58:43;8.73;;;3.85;;
51828;SDS011;37881;48.024;8.774;2022-12-24T05:01:11;9.38;;;4.20;;
51828;SDS011;37881;48.024;8.774;2022-12-24T05:03:41;8.57;;;3.97;;
51828;SDS011;37881;48.024;8.774;2022-12-24T05:06:09;7.10;;;3.13;;
51828;SDS011;37881;48.024;8.774;2022-12-24T05:08:37;7.68;;;3.38;;
51828;SDS011;37881;48.024;8.774;2022-12-24T05:11:04;5.65;;;2.92;;
51828;SDS011;37881;48.024;8.774;2022-12-24T05:13:32;6.00;;;2.80;;
51828;SDS011;37881;48.024;8.774;2022-12-24T05:16:11;10.90;;;3.65;;
51828;SDS011;37881;48.024;8.774;2022-12-24T05:18:39;8.03;;;2.60;;
51828;SDS011;37881;48.024;8.774;2022-12-24T05:21:10;6.97;;;2.90;;
51828;SDS011;37881;48.024;8.774;2022-12-24T05:23:40;8.75;;;3.47;;
51828;SDS011;37881;48.024;8.774;2022-12-24T05:26:27;11.60;;;3.88;;
51828;SDS011;37881;48.024;8.774;2022-12-24T05:29:02;16.30;;;7.13;;
51828;SDS011;37881;48.024;8.774;2022-12-24T05:31:31;22.97;;;8.87;;
51828;SDS011;37881;48.024;8.774;2022-12-24T05:33:59;14.48;;;6.05;;
51828;SDS011;37881;48.024;8.774;2022-12-24T05:36:26;8.77;;;3.03;;
51828;SDS011;37881;48.024;8.774;2022-12-24T05:38:53;10.63;;;4.50;;
51828;SDS011;37881;48.024;8.774;2022-12-24T05:41:20;8.77;;;4.20;;
51828;SDS011;37881;48.024;8.774;2022-12-24T05:43:47;11.27;;;4.27;;
51828;SDS011;37881;48.024;8.774;2022-12-24T05:46:15;9.82;;;5.15;;
51828;SDS011;37881;48.024;8.774;2022-12-24T05:48:47;9.57;;;4.32;;
51828;SDS011;37881;48.024;8.774;2022-12-24T05:51:15;10.18;;;4.70;;
51828;SDS011;37881;48.024;8.774;2022-12-24T05:53:45;10.77;;;3.95;;
51828;SDS011;37881;48.024;8.774;2022-12-24T05:56:17;12.80;;;6.17;;
51828;SDS011;37881;48.024;8.774;2022-12-24T05:58:48;12.27;;;5.32;;
51828;SDS011;37881;48.024;8.774;2022-12-24T06:01:15;13.75;;;5.95;;
51828;SDS011;37881;48.024;8.774;2022-12-24T06:03:43;9.95;;;3.88;;
51828;SDS011;37881;48.024;8.774;2022-12-24T06:06:13;10.90;;;5.07;;
51828;SDS011;37881;48.024;8.774;2022-12-24T06:08:44;13.17;;;5.73;;
51828;SDS011;37881;48.024;8.774;2022-12-24T06:11:12;11.02;;;4.25;;
51828;SDS011;37881;48.024;8.774;2022-12-24T06:13:40;7.50;;;2.50;;
51828;SDS011;37881;48.024;8.774;2022-12-24T06:16:10;21.90;;;7.72;;
51828;SDS011;37881;48.024;8.774;2022-12-24T06:18:40;86.38;;;26.55;;
51828;SDS011;37881;48.024;8.774;2022-12-24T06:21:07;25.47;;;8.70;;
51828;SDS011;37881;48.024;8.774;2022-12-24T06:23:35;15.32;;;6.28;;
51828;SDS011;37881;48.024;8.774;2022-12-24T06:26:04;6.93;;;2.42;;
51828;SDS011;37881;48.024;8.774;2022-12-24T06:28:33;9.20;;;3.03;;
51828;SDS011;37881;48.024;8.774;2022-12-24T06:31:03;13.50;;;6.07;;
51828;SDS011;37881;48.024;8.774;2022-12-24T06:33:31;49.47;;;18.87;;
51828;SDS011;37881;48.024;8.774;2022-12-24T06:35:58;20.10;;;8.63;;
51828;SDS011;37881;48.024;8.774;2022-12-24T06:38:25;25.55;;;9.77;;
51828;SDS011;37881;48.024;8.774;2022-12-24T06:40:52;23.10;;;9.25;;
51828;SDS011;37881;48.024;8.774;2022-12-24T06:43:21;25.17;;;10.18;;
51828;SDS011;37881;48.024;8.774;2022-12-24T06:45:47;20.77;;;7.90;;
51828;SDS011;37881;48.024;8.774;2022-12-24T06:48:14;15.68;;;6.60;;
51828;SDS011;37881;48.024;8.774;2022-12-24T06:50:41;16.08;;;7.10;;
51828;SDS011;37881;48.024;8.774;2022-12-24T06:53:08;19.90;;;9.60;;
51828;SDS011;37881;48.024;8.774;2022-12-24T06:55:35;15.63;;;6.03;;
51828;SDS011;37881;48.024;8.774;2022-12-24T06:58:03;13.87;;;5.60;;
51828;SDS011;37881;48.024;8.774;2022-12-24T07:00:29;12.85;;;2.78;;
51828;SDS011;37881;48.024;8.774;2022-12-24T07:02:56;13.13;;;6.90;;
51828;SDS011;37881;48.024;8.774;2022-12-24T07:05:23;10.07;;;5.18;;
51828;SDS011;37881;48.024;8.774;2022-12-24T07:07:50;8.98;;;3.40;;
51828;SDS011;37881;48.024;8.774;2022-12-24T07:10:18;8.60;;;3.20;;
51828;SDS011;37881;48.024;8.774;2022-12-24T07:12:45;8.80;;;3.55;;
51828;SDS011;37881;48.024;8.774;2022-12-24T07:15:13;8.25;;;3.38;;
51828;SDS011;37881;48.024;8.774;2022-12-24T07:17:40;6.78;;;2.38;;
51828;SDS011;37881;48.024;8.774;2022-12-24T07:20:09;7.28;;;2.20;;
51828;SDS011;37881;48.024;8.774;2022-12-24T07:22:41;7.53;;;2.33;;
51828;SDS011;37881;48.024;8.774;2022-12-24T07:25:08;11.25;;;5.00;;
51828;SDS011;37881;48.024;8.774;2022-12-24T07:27:36;11.02;;;4.10;;
51828;SDS011;37881;48.024;8.774;2022-12-24T07:30:03;9.57;;;3.72;;
51828;SDS011;37881;48.024;8.774;2022-12-24T07:32:31;14.95;;;5.70;;
51828;SDS011;37881;48.024;8.774;2022-12-24T07:34:58;14.10;;;5.90;;
51828;SDS011;37881;48.024;8.774;2022-12-24T07:37:25;14.57;;;5.60;;
51828;SDS011;37881;48.024;8.774;2022-12-24T07:39:51;14.50;;;5.72;;
51828;SDS011;37881;48.024;8.774;2022-12-24T07:42:18;18.15;;;8.18;;
51828;SDS011;37881;48.024;8.774;2022-12-24T07:44:44;13.82;;;5.45;;
51828;SDS011;37881;48.024;8.774;2022-12-24T07:47:11;16.43;;;6.57;;
51828;SDS011;37881;48.024;8.774;2022-12-24T07:49:38;24.17;;;9.10;;
51828;SDS011;37881;48.024;8.774;2022-12-24T07:52:05;17.10;;;6.45;;
51828;SDS011;37881;48.024;8.774;2022-12-24T07:54:32;15.48;;;6.25;;
51828;SDS011;37881;48.024;8.774;2022-12-24T07:56:58;16.60;;;7.72;;
51828;SDS011;37881;48.024;8.774;2022-12-24T07:59:25;14.43;;;8.17;;
51828;SDS011;37881;48.024;8.774;2022-12-24T08:01:52;15.65;;;6.88;;
51828;SDS011;37881;48.024;8.774;2022-12-24T08:04:19;14.50;;;7.78;;
51828;SDS011;37881;48.024;8.774;2022-12-24T08:06:46;17.70;;;7.35;;
51828;SDS011;37881;48.024;8.774;2022-12-24T08:09:12;15.80;;;7.53;;
51828;SDS011;37881;48.024;8.774;2022-12-24T08:11:41;13.57;;;7.90;;
51828;SDS011;37881;48.024;8.774;2022-12-24T08:14:17;12.93;;;6.57;;
51828;SDS011;37881;48.024;8.774;2022-12-24T08:16:43;15.93;;;7.47;;
51828;SDS011;37881;48.024;8.774;2022-12-24T08:19:10;16.17;;;7.10;;
51828;SDS011;37881;48.024;8.774;2022-12-24T08:21:37;15.35;;;6.40;;
51828;SDS011;37881;48.024;8.774;2022-12-24T08:24:04;17.43;;;6.73;;
51828;SDS011;37881;48.024;8.774;2022-12-24T08:26:31;14.43;;;4.43;;
51828;SDS011;37881;48.024;8.774;2022-12-24T08:28:58;7.68;;;4.38;;
51828;SDS011;37881;48.024;8.774;2022-12-24T08:31:24;12.25;;;4.97;;
51828;SDS011;37881;48.024;8.774;2022-12-24T08:33:51;12.13;;;5.68;;
51828;SDS011;37881;48.024;8.774;2022-12-24T08:36:18;10.10;;;5.07;;
51828;SDS011;37881;48.024;8.774;2022-12-24T08:38:45;13.60;;;4.82;;
51828;SDS011;37881;48.024;8.774;2022-12-24T08:41:11;13.55;;;4.35;;
51828;SDS011;37881;48.024;8.774;2022-12-24T08:43:38;10.00;;;4.50;;
51828;SDS011;37881;48.024;8.774;2022-12-24T08:46:05;16.33;;;5.72;;
51828;SDS011;37881;48.024;8.774;2022-12-24T08:48:32;14.90;;;7.43;;
51828;SDS011;37881;48.024;8.774;2022-12-24T08:50:59;16.77;;;7.70;;
51828;SDS011;37881;48.024;8.774;2022-12-24T08:53:26;21.90;;;10.70;;
51828;SDS011;37881;48.024;8.774;2022-12-24T08:55:59;21.90;;;9.60;;
51828;SDS011;37881;48.024;8.774;2022-12-24T08:58:28;26.27;;;12.63;;
51828;SDS011;37881;48.024;8.774;2022-12-24T09:00:55;22.00;;;10.33;;
51828;SDS011;37881;48.024;8.774;2022-12-24T09:03:21;22.50;;;11.50;;
51828;SDS011;37881;48.024;8.774;2022-12-24T09:05:53;19.27;;;10.15;;
51828;SDS011;37881;48.024;8.774;2022-12-24T09:08:20;17.20;;;8.32;;
51828;SDS011;37881;48.024;8.774;2022-12-24T09:10:47;21.33;;;8.65;;
51828;SDS011;37881;48.024;8.774;2022-12-24T09:13:13;19.47;;;9.00;;
51828;SDS011;37881;48.024;8.774;2022-12-24T09:15:40;22.52;;;9.73;;
51828;SDS011;37881;48.024;8.774;2022-12-24T09:18:07;20.20;;;9.18;;
51828;SDS011;37881;48.024;8.774;2022-12-24T09:20:33;16.92;;;7.68;;
51828;SDS011;37881;48.024;8.774;2022-12-24T09:23:00;16.20;;;8.15;;
51828;SDS011;37881;48.024;8.774;2022-12-24T09:25:27;13.97;;;7.20;;
51828;SDS011;37881;48.024;8.774;2022-12-24T09:27:53;13.80;;;6.80;;
51828;SDS011;37881;48.024;8.774;2022-12-24T09:30:20;13.80;;;6.50;;
51828;SDS011;37881;48.024;8.774;2022-12-24T09:32:49;15.43;;;6.22;;
51828;SDS011;37881;48.024;8.774;2022-12-24T09:35:16;21.60;;;10.02;;
51828;SDS011;37881;48.024;8.774;2022-12-24T09:37:43;20.97;;;9.50;;
51828;SDS011;37881;48.024;8.774;2022-12-24T09:40:15;20.00;;;7.95;;
51828;SDS011;37881;48.024;8.774;2022-12-24T09:42:53;30.70;;;12.75;;
51828;SDS011;37881;48.024;8.774;2022-12-24T09:45:33;28.10;;;11.82;;
51828;SDS011;37881;48.024;8.774;2022-12-24T09:48:16;12.75;;;4.88;;
51828;SDS011;37881;48.024;8.774;2022-12-24T09:51:06;10.57;;;4.80;;
51828;SDS011;37881;48.024;8.774;2022-12-24T09:56:20;12.73;;;3.33;;
51828;SDS011;37881;48.024;8.774;2022-12-24T09:59:00;9.27;;;3.50;;
51828;SDS011;37881;48.024;8.774;2022-12-24T10:01:29;11.40;;;3.80;;
51828;SDS011;37881;48.024;8.774;2022-12-24T10:04:02;10.63;;;3.80;;
51828;SDS011;37881;48.024;8.774;2022-12-24T10:06:36;8.35;;;3.33;;
51828;SDS011;37881;48.024;8.774;2022-12-24T10:09:17;18.38;;;7.40;;
51828;SDS011;37881;48.024;8.774;2022-12-24T10:11:57;14.68;;;5.57;;
51828;SDS011;37881;48.024;8.774;2022-12-24T10:25:20;13.23;;;4.82;;
51828;SDS011;37881;48.024;8.774;2022-12-24T10:27:53;13.48;;;4.32;;
51828;SDS011;37881;48.024;8.774;2022-12-24T10:30:22;13.37;;;3.67;;
51828;SDS011;37881;48.024;8.774;2022-12-24T10:32:50;11.50;;;3.30;;
51828;SDS011;37881;48.024;8.774;2022-12-24T10:35:19;9.43;;;3.40;;
51828;SDS011;37881;48.024;8.774;2022-12-24T10:37:51;8.93;;;3.03;;
51828;SDS011;37881;48.024;8.774;2022-12-24T10:42:55;7.90;;;2.87;;
51828;SDS011;37881;48.024;8.774;2022-12-24T10:45:22;8.05;;;2.80;;
51828;SDS011;37881;48.024;8.774;2022-12-24T10:47:54;7.82;;;2.63;;
51828;SDS011;37881;48.024;8.774;2022-12-24T10:50:39;9.68;;;2.85;;
51828;SDS011;37881;48.024;8.774;2022-12-24T10:56:16;7.90;;;2.10;;
51828;SDS011;37881;48.024;8.774;2022-12-24T10:58:44;8.43;;;2.30;;
51828;SDS011;37881;48.024;8.774;2022-12-24T11:01:16;8.50;;;2.42;;
51828;SDS011;37881;48.024;8.774;2022-12-24T11:03:43;6.80;;;2.30;;
51828;SDS011;37881;48.024;8.774;2022-12-24T11:06:14;7.50;;;2.22;;
51828;SDS011;37881;48.024;8.774;2022-12-24T11:08:46;5.27;;;2.07;;
51828;SDS011;37881;48.024;8.774;2022-12-24T11:11:14;9.57;;;2.58;;
51828;SDS011;37881;48.024;8.774;2022-12-24T11:13:43;10.10;;;2.60;;
51828;SDS011;37881;48.024;8.774;2022-12-24T11:18:50;6.22;;;2.40;;
51828;SDS011;37881;48.024;8.774;2022-12-24T11:21:20;7.07;;;2.53;;
51828;SDS011;37881;48.024;8.774;2022-12-24T11:23:49;7.97;;;2.20;;
51828;SDS011;37881;48.024;8.774;2022-12-24T11:26:26;7.97;;;2.20;;
51828;SDS011;37881;48.024;8.774;2022-12-24T11:31:49;8.90;;;2.55;;
51828;SDS011;37881;48.024;8.774;2022-12-24T11:36:48;6.68;;;2.28;;
51828;SDS011;37881;48.024;8.774;2022-12-24T11:39:17;6.00;;;2.42;;
51828;SDS011;37881;48.024;8.774;2022-12-24T11:41:48;5.72;;;2.13;;
51828;SDS011;37881;48.024;8.774;2022-12-24T11:44:23;8.68;;;2.58;;
51828;SDS011;37881;48.024;8.774;2022-12-24T11:46:54;5.60;;;2.47;;
51828;SDS011;37881;48.024;8.774;2022-12-24T12:00:47;5.73;;;2.40;;
51828;SDS011;37881;48.024;8.774;2022-12-24T12:03:25;9.15;;;5.20;;
51828;SDS011;37881;48.024;8.774;2022-12-24T12:05:57;8.05;;;2.70;;
51828;SDS011;37881;48.024;8.774;2022-12-24T12:08:28;8.30;;;2.50;;
51828;SDS011;37881;48.024;8.774;2022-12-24T12:10:57;8.05;;;2.40;;
51828;SDS011;37881;48.024;8.774;2022-12-24T12:13:28;6.67;;;2.40;;
51828;SDS011;37881;48.024;8.774;2022-12-24T12:16:02;6.32;;;2.78;;
51828;SDS011;37881;48.024;8.774;2022-12-24T12:18:45;9.20;;;2.70;;
51828;SDS011;37881;48.024;8.774;2022-12-24T12:21:22;6.68;;;2.00;;
51828;SDS011;37881;48.024;8.774;2022-12-24T12:24:02;6.75;;;2.78;;
51828;SDS011;37881;48.024;8.774;2022-12-24T12:26:35;5.53;;;2.20;;
51828;SDS011;37881;48.024;8.774;2022-12-24T12:29:09;6.50;;;2.38;;
51828;SDS011;37881;48.024;8.774;2022-12-24T12:31:41;5.28;;;2.60;;
51828;SDS011;37881;48.024;8.774;2022-12-24T12:34:21;6.22;;;2.60;;
51828;SDS011;37881;48.024;8.774;2022-12-24T12:37:11;6.55;;;2.05;;
51828;SDS011;37881;48.024;8.774;2022-12-24T12:39:43;7.47;;;2.77;;
51828;SDS011;37881;48.024;8.774;2022-12-24T12:47:52;7.32;;;2.10;;
51828;SDS011;37881;48.024;8.774;2022-12-24T12:50:31;6.45;;;3.10;;
51828;SDS011;37881;48.024;8.774;2022-12-24T12:53:04;8.33;;;3.03;;
51828;SDS011;37881;48.024;8.774;2022-12-24T12:58:34;8.52;;;2.47;;
51828;SDS011;37881;48.024;8.774;2022-12-24T13:01:10;7.28;;;2.53;;
51828;SDS011;37881;48.024;8.774;2022-12-24T13:21:04;7.27;;;3.13;;
51828;SDS011;37881;48.024;8.774;2022-12-24T13:23:38;6.20;;;2.88;;
51828;SDS011;37881;48.024;8.774;2022-12-24T13:26:08;6.22;;;2.70;;
51828;SDS011;37881;48.024;8.774;2022-12-24T13:28:38;7.35;;;2.67;;
51828;SDS011;37881;48.024;8.774;2022-12-24T13:33:49;7.83;;;3.23;;
51828;SDS011;37881;48.024;8.774;2022-12-24T13:36:19;8.40;;;3.42;;
51828;SDS011;37881;48.024;8.774;2022-12-24T13:38:53;8.00;;;3.60;;
51828;SDS011;37881;48.024;8.774;2022-12-24T13:49:35;8.98;;;3.85;;
51828;SDS011;37881;48.024;8.774;2022-12-24T13:52:05;6.60;;;3.03;;
51828;SDS011;37881;48.024;8.774;2022-12-24T14:02:35;6.75;;;4.15;;
51828;SDS011;37881;48.024;8.774;2022-12-24T14:05:20;6.75;;;3.50;;
51828;SDS011;37881;48.024;8.774;2022-12-24T14:07:50;8.52;;;3.42;;
51828;SDS011;37881;48.024;8.774;2022-12-24T14:10:19;8.77;;;3.67;;
51828;SDS011;37881;48.024;8.774;2022-12-24T14:12:52;6.27;;;2.90;;
51828;SDS011;37881;48.024;8.774;2022-12-24T14:18:17;8.85;;;4.60;;
51828;SDS011;37881;48.024;8.774;2022-12-24T14:20:47;10.25;;;4.78;;
51828;SDS011;37881;48.024;8.774;2022-12-24T14:26:10;9.90;;;4.07;;
51828;SDS011;37881;48.024;8.774;2022-12-24T14:28:42;9.80;;;4.85;;
51828;SDS011;37881;48.024;8.774;2022-12-24T14:31:13;8.10;;;3.60;;
51828;SDS011;37881;48.024;8.774;2022-12-24T14:33:42;7.53;;;4.00;;
51828;SDS011;37881;48.024;8.774;2022-12-24T14:36:09;7.88;;;4.28;;
51828;SDS011;37881;48.024;8.774;2022-12-24T14:38:40;9.87;;;4.13;;
51828;SDS011;37881;48.024;8.774;2022-12-24T14:43:47;6.95;;;3.28;;
51828;SDS011;37881;48.024;8.774;2022-12-24T14:46:23;7.60;;;3.10;;
51828;SDS011;37881;48.024;8.774;2022-12-24T14:51:56;8.10;;;4.20;;
51828;SDS011;37881;48.024;8.774;2022-12-24T14:55:25;10.18;;;4.25;;
51828;SDS011;37881;48.024;8.774;2022-12-24T15:00:45;8.98;;;5.75;;
51828;SDS011;37881;48.024;8.774;2022-12-24T15:03:13;10.65;;;6.00;;
51828;SDS011;37881;48.024;8.774;2022-12-24T15:05:42;9.80;;;5.50;;
51828;SDS011;37881;48.024;8.774;2022-12-24T15:08:31;13.05;;;6.40;;
51828;SDS011;37881;48.024;8.774;2022-12-24T15:10:59;12.95;;;7.65;;
51828;SDS011;37881;48.024;8.774;2022-12-24T15:13:44;13.55;;;7.25;;
51828;SDS011;37881;48.024;8.774;2022-12-24T15:16:18;10.70;;;5.50;;
51828;SDS011;37881;48.024;8.774;2022-12-24T15:18:51;18.27;;;10.33;;
51828;SDS011;37881;48.024;8.774;2022-12-24T15:21:27;12.73;;;8.00;;
51828;SDS011;37881;48.024;8.774;2022-12-24T15:23:58;9.85;;;5.82;;
51828;SDS011;37881;48.024;8.774;2022-12-24T15:28:58;10.10;;;6.00;;
51828;SDS011;37881;48.024;8.774;2022-12-24T15:31:29;11.07;;;6.03;;
51828;SDS011;37881;48.024;8.774;2022-12-24T15:33:56;11.43;;;6.55;;
51828;SDS011;37881;48.024;8.774;2022-12-24T15:36:28;11.32;;;5.22;;
51828;SDS011;37881;48.024;8.774;2022-12-24T15:39:06;12.93;;;7.20;;
51828;SDS011;37881;48.024;8.774;2022-12-24T15:41:40;9.55;;;5.00;;
51828;SDS011;37881;48.024;8.774;2022-12-24T15:44:36;9.87;;;5.07;;
51828;SDS011;37881;48.024;8.774;2022-12-24T15:47:06;7.97;;;4.78;;
51828;SDS011;37881;48.024;8.774;2022-12-24T15:49:42;10.77;;;5.90;;
51828;SDS011;37881;48.024;8.774;2022-12-24T15:52:13;10.55;;;5.95;;
51828;SDS011;37881;48.024;8.774;2022-12-24T15:54:43;10.70;;;6.18;;
51828;SDS011;37881;48.024;8.774;2022-12-24T15:57:22;11.37;;;6.37;;
51828;SDS011;37881;48.024;8.774;2022-12-24T15:59:50;10.18;;;5.32;;
51828;SDS011;37881;48.024;8.774;2022-12-24T16:07:58;12.15;;;6.05;;
51828;SDS011;37881;48.024;8.774;2022-12-24T16:10:38;11.43;;;6.20;;
51828;SDS011;37881;48.024;8.774;2022-12-24T16:13:18;10.48;;;5.82;;
51828;SDS011;37881;48.024;8.774;2022-12-24T16:15:52;11.30;;;6.68;;
51828;SDS011;37881;48.024;8.774;2022-12-24T16:18:25;11.65;;;6.13;;
51828;SDS011;37881;48.024;8.774;2022-12-24T16:21:03;10.93;;;6.13;;
51828;SDS011;37881;48.024;8.774;2022-12-24T16:23:53;10.50;;;5.90;;
51828;SDS011;37881;48.024;8.774;2022-12-24T16:26:21;11.68;;;6.40;;
51828;SDS011;37881;48.024;8.774;2022-12-24T16:28:47;10.65;;;6.00;;
51828;SDS011;37881;48.024;8.774;2022-12-24T16:31:19;10.65;;;6.03;;
51828;SDS011;37881;48.024;8.774;2022-12-24T16:33:56;11.82;;;6.57;;
51828;SDS011;37881;48.024;8.774;2022-12-24T16:36:24;13.57;;;7.43;;
51828;SDS011;37881;48.024;8.774;2022-12-24T16:38:51;13.55;;;7.30;;
51828;SDS011;37881;48.024;8.774;2022-12-24T16:41:36;12.82;;;7.57;;
51828;SDS011;37881;48.024;8.774;2022-12-24T16:44:22;12.65;;;6.63;;
51828;SDS011;37881;48.024;8.774;2022-12-24T16:46:49;12.52;;;7.25;;
51828;SDS011;37881;48.024;8.774;2022-12-24T16:49:17;13.87;;;7.33;;
51828;SDS011;37881;48.024;8.774;2022-12-24T16:51:45;11.98;;;6.97;;
51828;SDS011;37881;48.024;8.774;2022-12-24T16:54:13;13.15;;;7.07;;
51828;SDS011;37881;48.024;8.774;2022-12-24T16:56:40;14.68;;;7.32;;
51828;SDS011;37881;48.024;8.774;2022-12-24T16:59:18;12.32;;;6.97;;
51828;SDS011;37881;48.024;8.774;2022-12-24T17:01:46;11.93;;;6.37;;
51828;SDS011;37881;48.024;8.774;2022-12-24T17:04:15;13.70;;;7.07;;
51828;SDS011;37881;48.024;8.774;2022-12-24T17:06:42;19.02;;;8.90;;
51828;SDS011;37881;48.024;8.774;2022-12-24T17:09:10;13.73;;;7.70;;